createdAt,value
2023-07-31T00:01:10.613Z,15.18
2023-07-31T00:03:38.833Z,15.17
2023-07-31T00:06:06.989Z,15.16
2023-07-31T00:08:35.101Z,15.15
2023-07-31T00:11:04.792Z,15.16
2023-07-31T00:13:32.986Z,15.16
2023-07-31T00:16:01.394Z,15.17
2023-07-31T00:18:29.614Z,15.17
2023-07-31T00:20:57.732Z,15.17
2023-07-31T00:23:25.883Z,15.17
2023-07-31T00:25:54.008Z,15.19
2023-07-31T00:28:23.484Z,15.20
2023-07-31T00:30:51.648Z,15.21
2023-07-31T00:33:19.886Z,15.21
2023-07-31T00:35:48.084Z,15.19
2023-07-31T00:38:16.207Z,15.17
2023-07-31T00:40:44.332Z,15.17
2023-07-31T00:43:12.449Z,15.21
2023-07-31T00:45:42.213Z,15.23
2023-07-31T00:48:10.612Z,15.25
2023-07-31T00:50:38.762Z,15.27
2023-07-31T00:53:06.897Z,15.26
2023-07-31T00:55:35.223Z,15.25
2023-07-31T00:58:03.342Z,15.24
2023-07-31T01:00:31.524Z,15.23
2023-07-31T01:03:01.364Z,15.24
2023-07-31T01:05:35.994Z,15.24
2023-07-31T01:08:11.790Z,15.24
2023-07-31T01:10:47.690Z,15.23
2023-07-31T01:13:15.813Z,15.22
2023-07-31T01:15:43.950Z,15.20
2023-07-31T01:18:13.403Z,15.16
2023-07-31T01:20:43.745Z,15.13
2023-07-31T01:23:51.706Z,15.07
2023-07-31T01:26:23.323Z,15.01
2023-07-31T01:28:57.598Z,14.95
2023-07-31T01:31:28.769Z,14.90
2023-07-31T01:33:59.920Z,14.85
2023-07-31T01:36:28.453Z,14.80
2023-07-31T01:39:01.190Z,14.76
2023-07-31T01:41:30.833Z,14.71
2023-07-31T01:43:58.974Z,14.68
2023-07-31T01:46:27.120Z,14.66
2023-07-31T01:48:55.242Z,14.64
2023-07-31T01:51:23.356Z,14.65
2023-07-31T01:53:51.477Z,14.65
2023-07-31T01:56:19.719Z,14.66
2023-07-31T01:58:50.472Z,14.66
2023-07-31T02:01:18.756Z,14.67
2023-07-31T02:03:47.047Z,14.68
2023-07-31T02:06:15.180Z,14.66
2023-07-31T02:08:43.458Z,14.66
2023-07-31T02:11:11.577Z,14.64
2023-07-31T02:13:39.820Z,14.64
2023-07-31T02:16:09.386Z,14.63
2023-07-31T02:18:37.828Z,14.61
2023-07-31T02:21:06.035Z,14.61
2023-07-31T02:23:34.167Z,14.62
2023-07-31T02:26:02.298Z,14.64
2023-07-31T02:28:30.934Z,14.66
2023-07-31T02:30:59.495Z,14.67
2023-07-31T02:33:29.377Z,14.67
2023-07-31T02:35:57.488Z,14.67
2023-07-31T02:38:24.639Z,14.66
2023-07-31T02:40:52.745Z,14.67
2023-07-31T02:43:20.879Z,14.67
2023-07-31T02:45:53.694Z,14.69
2023-07-31T02:48:21.834Z,14.72
2023-07-31T02:50:51.341Z,14.76
2023-07-31T02:53:19.436Z,14.80
2023-07-31T02:55:47.713Z,14.83
2023-07-31T02:58:15.863Z,14.85
2023-07-31T03:00:44.813Z,14.87
2023-07-31T03:03:13.065Z,14.87
2023-07-31T03:05:41.257Z,14.89
2023-07-31T03:08:10.737Z,14.90
2023-07-31T03:10:38.850Z,14.92
2023-07-31T03:13:07.083Z,14.94
2023-07-31T03:15:35.249Z,14.95
2023-07-31T03:18:03.410Z,14.98
2023-07-31T03:20:31.533Z,15.01
2023-07-31T03:23:00.113Z,15.06
2023-07-31T03:25:29.597Z,15.12
2023-07-31T03:27:57.707Z,15.16
2023-07-31T03:30:25.841Z,15.20
2023-07-31T03:32:53.983Z,15.24
2023-07-31T03:35:22.139Z,15.27
2023-07-31T03:37:50.255Z,15.34
2023-07-31T03:40:18.607Z,15.36
2023-07-31T03:42:48.060Z,15.41
2023-07-31T03:45:16.320Z,15.44
2023-07-31T03:47:44.608Z,15.48
2023-07-31T03:50:12.870Z,15.52
2023-07-31T03:52:41.011Z,15.55
2023-07-31T03:55:09.767Z,15.60
2023-07-31T03:57:37.941Z,15.62
2023-07-31T04:00:09.134Z,15.67
2023-07-31T04:02:37.458Z,15.72
2023-07-31T04:05:06.193Z,15.74
2023-07-31T04:07:34.393Z,15.79
2023-07-31T04:10:02.842Z,15.84
2023-07-31T04:12:31.052Z,15.88
2023-07-31T04:14:59.196Z,15.92
2023-07-31T04:17:28.714Z,15.97
2023-07-31T04:19:56.960Z,16.00
2023-07-31T04:22:25.205Z,16.02
2023-07-31T04:24:53.320Z,16.06
2023-07-31T04:27:21.432Z,16.07
2023-07-31T04:29:49.597Z,16.07
2023-07-31T04:32:18.674Z,16.08
2023-07-31T04:34:48.286Z,16.07
2023-07-31T04:37:16.388Z,16.07
2023-07-31T04:39:44.532Z,16.10
2023-07-31T04:42:12.669Z,16.11
2023-07-31T04:44:40.909Z,16.12
2023-07-31T04:47:09.072Z,16.14
2023-07-31T04:49:37.210Z,16.16
2023-07-31T04:52:07.550Z,16.20
2023-07-31T04:54:35.680Z,16.22
2023-07-31T04:57:03.779Z,16.22
2023-07-31T04:59:32.764Z,16.24
2023-07-31T05:02:00.978Z,16.26
2023-07-31T05:04:29.276Z,16.27
2023-07-31T05:06:57.401Z,16.31
2023-07-31T05:09:27.079Z,16.34
2023-07-31T05:11:55.341Z,16.38
2023-07-31T05:14:23.486Z,16.41
2023-07-31T05:16:51.692Z,16.44
2023-07-31T05:19:19.867Z,16.47
2023-07-31T05:21:47.989Z,16.49
2023-07-31T05:24:16.128Z,16.54
2023-07-31T05:26:45.639Z,16.58
2023-07-31T05:29:13.768Z,16.61
2023-07-31T05:31:41.925Z,16.62
2023-07-31T05:34:10.071Z,16.64
2023-07-31T05:36:38.744Z,16.64
2023-07-31T05:39:09.526Z,16.64
2023-07-31T05:41:38.034Z,16.68
2023-07-31T05:44:07.737Z,16.71
2023-07-31T05:46:36.200Z,16.74
2023-07-31T05:49:04.421Z,16.75
2023-07-31T05:51:32.627Z,16.74
2023-07-31T05:54:00.753Z,16.79
2023-07-31T05:56:29.053Z,16.80
2023-07-31T05:58:58.297Z,16.82
2023-07-31T06:01:27.898Z,16.87
2023-07-31T06:03:56.128Z,16.91
2023-07-31T06:06:24.314Z,16.93
2023-07-31T06:08:52.689Z,16.94
2023-07-31T06:11:21.971Z,16.96
2023-07-31T06:13:50.308Z,16.95
2023-07-31T06:16:18.519Z,16.96
2023-07-31T06:18:48.185Z,16.97
2023-07-31T06:21:16.444Z,16.99
2023-07-31T06:23:44.658Z,17.01
2023-07-31T06:26:12.814Z,17.02
2023-07-31T06:28:40.966Z,17.05
2023-07-31T06:31:09.215Z,17.08
2023-07-31T06:33:37.386Z,17.09
2023-07-31T06:36:07.138Z,17.13
2023-07-31T06:38:35.351Z,17.16
2023-07-31T06:41:03.527Z,17.18
2023-07-31T06:43:31.777Z,17.20
2023-07-31T06:46:00.000Z,17.22
2023-07-31T06:48:28.254Z,17.22
2023-07-31T06:50:56.380Z,17.23
2023-07-31T06:53:26.069Z,17.22
2023-07-31T06:55:54.237Z,17.24
2023-07-31T06:58:22.508Z,17.28
2023-07-31T07:00:51.157Z,17.32
2023-07-31T07:03:21.405Z,17.38
2023-07-31T07:05:49.664Z,17.44
2023-07-31T07:08:18.009Z,17.49
2023-07-31T07:10:47.589Z,17.57
2023-07-31T07:13:15.752Z,17.59
2023-07-31T07:15:43.865Z,17.59
2023-07-31T07:18:12.613Z,17.61
2023-07-31T07:20:40.772Z,17.62
2023-07-31T07:23:09.962Z,17.64
2023-07-31T07:25:40.033Z,17.68
2023-07-31T07:28:09.645Z,17.74
2023-07-31T07:30:37.992Z,17.79
2023-07-31T07:33:06.290Z,17.83
2023-07-31T07:35:35.707Z,17.88
2023-07-31T07:38:04.157Z,17.88
2023-07-31T07:40:32.290Z,17.85
2023-07-31T07:43:01.328Z,17.84
2023-07-31T07:45:30.905Z,17.86
2023-07-31T07:47:59.104Z,17.87
2023-07-31T07:50:27.293Z,17.91
2023-07-31T07:52:55.422Z,17.96
2023-07-31T07:55:23.650Z,18.00
2023-07-31T07:57:52.217Z,18.06
2023-07-31T08:00:20.394Z,18.16
2023-07-31T08:02:50.119Z,18.24
2023-07-31T08:05:19.020Z,18.34
2023-07-31T08:07:47.111Z,18.37
2023-07-31T08:10:15.287Z,18.36
2023-07-31T08:12:43.410Z,18.35
2023-07-31T08:15:11.850Z,18.31
2023-07-31T08:17:40.127Z,18.26
2023-07-31T08:20:11.402Z,18.23
2023-07-31T08:22:39.671Z,18.28
2023-07-31T08:25:09.035Z,18.32
2023-07-31T08:27:37.198Z,18.33
2023-07-31T08:30:06.137Z,18.33
2023-07-31T08:32:34.274Z,18.34
2023-07-31T08:35:02.407Z,18.37
2023-07-31T08:37:32.032Z,18.40
2023-07-31T08:40:00.424Z,18.38
2023-07-31T08:42:30.163Z,18.41
2023-07-31T08:45:01.703Z,18.44
2023-07-31T08:47:30.325Z,18.47
2023-07-31T08:49:59.596Z,18.49
2023-07-31T08:52:27.886Z,18.48
2023-07-31T08:54:57.482Z,18.46
2023-07-31T08:57:25.639Z,18.43
2023-07-31T08:59:53.898Z,18.42
2023-07-31T09:02:23.112Z,18.39
2023-07-31T09:04:51.477Z,18.38
2023-07-31T09:07:19.711Z,18.37
2023-07-31T09:09:48.020Z,18.33
2023-07-31T09:12:17.525Z,18.30
2023-07-31T09:14:47.446Z,18.24
2023-07-31T09:17:15.644Z,18.19
2023-07-31T09:19:43.763Z,18.18
2023-07-31T09:22:11.916Z,18.19
2023-07-31T09:24:40.070Z,18.17
2023-07-31T09:27:08.470Z,18.17
2023-07-31T09:29:37.976Z,18.20
2023-07-31T09:32:06.565Z,18.19
2023-07-31T09:34:40.461Z,18.19
2023-07-31T09:37:08.691Z,18.18
2023-07-31T09:39:48.230Z,18.18
2023-07-31T09:42:16.396Z,18.22
2023-07-31T09:44:45.909Z,18.26
2023-07-31T09:47:26.468Z,18.29
2023-07-31T09:49:55.143Z,18.33
2023-07-31T09:52:23.432Z,18.38
2023-07-31T09:54:51.559Z,18.38
2023-07-31T09:57:20.629Z,18.38
2023-07-31T09:59:50.866Z,18.42
2023-07-31T10:02:25.162Z,18.46
2023-07-31T10:04:53.948Z,18.47
2023-07-31T10:07:22.756Z,18.48
2023-07-31T10:09:51.833Z,18.51
2023-07-31T10:12:21.659Z,18.53
2023-07-31T10:14:51.149Z,18.59
2023-07-31T10:17:20.182Z,18.61
2023-07-31T10:19:49.120Z,18.60
2023-07-31T10:22:19.715Z,18.59
2023-07-31T10:24:48.210Z,18.60
2023-07-31T10:27:16.562Z,18.60
2023-07-31T10:29:45.950Z,18.62
2023-07-31T10:32:16.636Z,18.71
2023-07-31T10:34:45.096Z,18.86
2023-07-31T10:37:23.814Z,18.91
2023-07-31T10:40:00.027Z,18.90
2023-07-31T10:42:33.348Z,18.90
2023-07-31T10:45:02.438Z,18.87
2023-07-31T10:47:31.995Z,18.83
2023-07-31T10:50:19.976Z,18.80
2023-07-31T10:52:51.835Z,18.84
2023-07-31T10:55:29.112Z,18.90
2023-07-31T10:57:58.124Z,18.93
2023-07-31T11:00:28.472Z,18.98
2023-07-31T11:03:02.068Z,19.01
2023-07-31T11:05:49.850Z,19.02
2023-07-31T11:08:20.308Z,19.04
2023-07-31T11:10:49.564Z,19.04
2023-07-31T11:13:17.715Z,19.04
2023-07-31T11:15:46.019Z,19.03
2023-07-31T11:18:16.401Z,19.04
2023-07-31T11:20:44.550Z,19.08
2023-07-31T11:23:13.356Z,19.13
2023-07-31T11:25:43.068Z,19.14
2023-07-31T11:28:13.469Z,19.11
2023-07-31T11:30:42.224Z,19.12
2023-07-31T11:33:11.643Z,19.14
2023-07-31T11:35:46.623Z,19.12
2023-07-31T11:38:22.924Z,19.11
2023-07-31T11:40:51.109Z,19.09
2023-07-31T11:43:20.152Z,19.07
2023-07-31T11:45:50.460Z,19.07
2023-07-31T11:48:23.126Z,19.06
2023-07-31T11:50:54.351Z,19.06
2023-07-31T11:53:26.375Z,18.98
2023-07-31T11:55:54.724Z,18.88
2023-07-31T11:58:23.144Z,18.74
2023-07-31T12:00:51.668Z,18.61
2023-07-31T12:03:20.326Z,18.51
2023-07-31T12:05:49.937Z,18.45
2023-07-31T12:08:19.435Z,18.40
2023-07-31T12:10:48.652Z,18.34
2023-07-31T12:13:23.501Z,18.31
2023-07-31T12:15:56.343Z,18.31
2023-07-31T12:18:25.172Z,18.31
2023-07-31T12:20:57.469Z,18.31
2023-07-31T12:23:29.927Z,18.33
2023-07-31T12:26:05.319Z,18.29
2023-07-31T12:28:37.277Z,18.27
2023-07-31T12:31:06.635Z,18.24
2023-07-31T12:33:36.069Z,18.25
2023-07-31T12:36:05.616Z,18.26
2023-07-31T12:38:35.768Z,18.24
2023-07-31T12:41:03.933Z,18.24
2023-07-31T12:43:32.076Z,18.20
2023-07-31T12:46:00.276Z,18.16
2023-07-31T12:48:28.478Z,18.14
2023-07-31T12:50:56.605Z,18.11
2023-07-31T12:53:24.738Z,18.10
2023-07-31T12:55:54.303Z,18.13
2023-07-31T12:58:22.418Z,18.14
2023-07-31T13:00:50.697Z,18.17
2023-07-31T13:03:18.984Z,18.21
2023-07-31T13:05:47.262Z,18.27
2023-07-31T13:08:17.101Z,18.31
2023-07-31T13:10:45.600Z,18.30
2023-07-31T13:13:15.090Z,18.26
2023-07-31T13:15:43.640Z,18.22
2023-07-31T13:18:11.785Z,18.26
2023-07-31T13:20:39.887Z,18.35
2023-07-31T13:23:08.025Z,18.42
2023-07-31T13:25:36.640Z,18.56
2023-07-31T13:28:05.170Z,18.75
2023-07-31T13:30:35.471Z,18.91
2023-07-31T13:33:03.620Z,19.05
2023-07-31T13:35:32.657Z,19.21
2023-07-31T13:38:00.807Z,19.33
2023-07-31T13:40:28.912Z,19.44
2023-07-31T13:42:57.025Z,19.57
2023-07-31T13:45:25.355Z,19.74
2023-07-31T13:47:54.826Z,19.89
2023-07-31T13:50:23.763Z,19.96
2023-07-31T13:52:52.037Z,20.05
2023-07-31T13:55:20.191Z,20.09
2023-07-31T13:57:48.486Z,20.07
2023-07-31T14:00:17.116Z,19.99
2023-07-31T14:02:45.271Z,19.88
2023-07-31T14:05:14.820Z,19.82
2023-07-31T14:07:42.953Z,19.91
2023-07-31T14:10:11.739Z,19.96
2023-07-31T14:12:43.200Z,20.10
2023-07-31T14:15:12.623Z,20.22
2023-07-31T14:17:41.180Z,20.37
2023-07-31T14:20:11.320Z,20.43
2023-07-31T14:22:41.001Z,20.37
2023-07-31T14:25:11.509Z,20.27
2023-07-31T14:27:39.844Z,20.15
2023-07-31T14:30:09.637Z,20.05
2023-07-31T14:32:38.264Z,19.98
2023-07-31T14:35:06.873Z,19.93
2023-07-31T14:37:43.054Z,19.93
2023-07-31T14:40:12.825Z,19.92
2023-07-31T14:42:41.561Z,19.92
2023-07-31T14:45:11.285Z,19.90
2023-07-31T14:47:39.569Z,19.92
2023-07-31T14:50:08.641Z,19.98
2023-07-31T14:52:36.804Z,20.02
2023-07-31T14:55:07.233Z,20.04
2023-07-31T14:57:35.958Z,20.02
2023-07-31T15:00:08.369Z,19.99
2023-07-31T15:02:37.043Z,19.98
2023-07-31T15:05:05.954Z,19.99
2023-07-31T15:07:35.205Z,20.03
2023-07-31T15:10:04.803Z,20.08
2023-07-31T15:12:35.006Z,20.11
2023-07-31T15:15:04.108Z,20.16
2023-07-31T15:17:32.470Z,20.22
2023-07-31T15:20:04.021Z,20.28
2023-07-31T15:22:32.864Z,20.27
2023-07-31T15:25:01.461Z,20.23
2023-07-31T15:27:30.236Z,20.17
2023-07-31T15:30:06.800Z,20.11
2023-07-31T15:32:35.487Z,20.06
2023-07-31T15:35:04.226Z,20.03
2023-07-31T15:37:36.479Z,19.99
2023-07-31T15:40:05.149Z,19.97
2023-07-31T15:42:40.404Z,19.91
2023-07-31T15:45:11.716Z,19.86
2023-07-31T15:47:40.587Z,19.83
2023-07-31T15:50:10.193Z,19.83
2023-07-31T15:52:38.635Z,19.84
2023-07-31T15:55:07.776Z,19.84
2023-07-31T15:57:36.312Z,19.84
2023-07-31T16:00:05.473Z,19.80
2023-07-31T16:02:36.398Z,19.80
2023-07-31T16:05:05.941Z,19.79
2023-07-31T16:07:34.343Z,19.78
2023-07-31T16:10:02.872Z,19.77
2023-07-31T16:12:31.031Z,19.75
2023-07-31T16:15:00.272Z,19.73
2023-07-31T16:17:29.152Z,19.73
2023-07-31T16:19:59.829Z,19.72
2023-07-31T16:22:28.067Z,19.72
2023-07-31T16:24:57.542Z,19.72
2023-07-31T16:27:26.333Z,19.68
2023-07-31T16:29:54.761Z,19.65
2023-07-31T16:32:23.585Z,19.64
2023-07-31T16:34:51.908Z,19.61
2023-07-31T16:37:22.566Z,19.54
2023-07-31T16:39:55.637Z,19.50
2023-07-31T16:42:24.554Z,19.47
2023-07-31T16:44:53.409Z,19.43
2023-07-31T16:47:21.962Z,19.37
2023-07-31T16:49:50.130Z,19.33
2023-07-31T16:52:18.423Z,19.31
2023-07-31T16:54:51.604Z,19.28
2023-07-31T16:57:22.645Z,19.26
2023-07-31T16:59:53.825Z,19.27
2023-07-31T17:02:25.212Z,19.26
2023-07-31T17:04:53.577Z,19.26
2023-07-31T17:07:22.979Z,19.25
2023-07-31T17:09:54.708Z,19.25
2023-07-31T17:12:28.713Z,19.23
2023-07-31T17:14:57.380Z,19.18
2023-07-31T17:17:30.016Z,19.15
2023-07-31T17:20:06.194Z,19.17
2023-07-31T17:22:47.261Z,19.19
2023-07-31T17:25:21.736Z,19.17
2023-07-31T17:27:53.772Z,19.13
2023-07-31T17:30:44.780Z,19.08
2023-07-31T17:33:16.872Z,19.03
2023-07-31T17:36:03.805Z,18.98
2023-07-31T17:38:33.515Z,18.93
2023-07-31T17:41:04.305Z,18.91
2023-07-31T17:43:36.276Z,18.87
2023-07-31T17:46:10.281Z,18.83
2023-07-31T17:48:54.012Z,18.76
2023-07-31T17:51:26.352Z,18.71
2023-07-31T17:54:01.426Z,18.65
2023-07-31T17:56:32.793Z,18.62
2023-07-31T17:59:01.018Z,18.59
2023-07-31T18:01:29.302Z,18.58
2023-07-31T18:03:57.507Z,18.59
2023-07-31T18:06:25.742Z,18.58
2023-07-31T18:08:54.056Z,18.57
2023-07-31T18:11:22.306Z,18.56
2023-07-31T18:13:51.937Z,18.55
2023-07-31T18:16:20.086Z,18.56
2023-07-31T18:18:48.194Z,18.53
2023-07-31T18:21:16.320Z,18.51
2023-07-31T18:23:44.472Z,18.48
2023-07-31T18:26:12.812Z,18.47
2023-07-31T18:28:41.086Z,18.44
2023-07-31T18:31:10.917Z,18.40
2023-07-31T18:33:39.590Z,18.38
2023-07-31T18:36:07.958Z,18.33
2023-07-31T18:38:36.160Z,18.28
2023-07-31T18:41:07.064Z,18.25
2023-07-31T18:43:35.247Z,18.23
2023-07-31T18:46:03.668Z,18.20
2023-07-31T18:48:33.171Z,18.19
2023-07-31T18:51:01.329Z,18.18
2023-07-31T18:53:29.726Z,18.16
2023-07-31T18:55:57.872Z,18.14
2023-07-31T18:58:26.122Z,18.14
2023-07-31T19:00:54.284Z,18.10
2023-07-31T19:03:23.221Z,18.08
2023-07-31T19:05:53.048Z,18.11
2023-07-31T19:08:21.177Z,18.11
2023-07-31T19:10:49.293Z,18.13
2023-07-31T19:13:17.432Z,18.11
2023-07-31T19:15:45.655Z,18.09
2023-07-31T19:18:13.799Z,18.07
2023-07-31T19:20:41.919Z,18.07
2023-07-31T19:23:11.441Z,18.06
2023-07-31T19:25:39.556Z,18.07
2023-07-31T19:28:07.808Z,18.04
2023-07-31T19:30:36.229Z,18.02
2023-07-31T19:33:04.570Z,18.00
2023-07-31T19:35:32.754Z,17.98
2023-07-31T19:38:00.914Z,17.99
2023-07-31T19:40:30.385Z,17.96
2023-07-31T19:43:00.487Z,17.96
2023-07-31T19:45:28.692Z,17.97
2023-07-31T19:47:56.829Z,17.99
2023-07-31T19:50:25.179Z,17.98
2023-07-31T19:52:53.281Z,18.00
2023-07-31T19:55:21.384Z,18.01
2023-07-31T19:57:51.321Z,18.03
2023-07-31T20:00:19.461Z,18.03
2023-07-31T20:02:47.709Z,18.05
2023-07-31T20:05:16.187Z,18.07
2023-07-31T20:07:44.356Z,18.07
2023-07-31T20:10:12.660Z,18.07
2023-07-31T20:12:40.802Z,18.09
2023-07-31T20:15:20.291Z,18.12
2023-07-31T20:17:48.532Z,18.14
2023-07-31T20:20:17.113Z,18.14
2023-07-31T20:22:45.265Z,18.14
2023-07-31T20:25:13.452Z,18.14
2023-07-31T20:27:41.604Z,18.14
2023-07-31T20:30:11.777Z,18.14
2023-07-31T20:32:39.936Z,18.13
2023-07-31T20:35:08.745Z,18.13
2023-07-31T20:37:36.907Z,18.13
2023-07-31T20:40:08.393Z,18.14
2023-07-31T20:42:36.584Z,18.15
2023-07-31T20:45:05.012Z,18.15
2023-07-31T20:47:34.508Z,18.16
2023-07-31T20:50:02.713Z,18.18
2023-07-31T20:52:31.035Z,18.21
2023-07-31T20:54:59.181Z,18.24
2023-07-31T20:57:27.335Z,18.28
2023-07-31T20:59:55.669Z,18.31
2023-07-31T21:02:23.821Z,18.34
2023-07-31T21:04:53.620Z,18.36
2023-07-31T21:07:21.768Z,18.39
2023-07-31T21:09:49.890Z,18.41
2023-07-31T21:12:18.000Z,18.42
2023-07-31T21:14:46.122Z,18.43
2023-07-31T21:17:14.336Z,18.46
2023-07-31T21:19:44.982Z,18.46
2023-07-31T21:22:15.026Z,18.48
2023-07-31T21:24:43.160Z,18.50
2023-07-31T21:27:11.267Z,18.52
2023-07-31T21:29:39.448Z,18.54
2023-07-31T21:32:08.154Z,18.55
2023-07-31T21:34:36.356Z,18.56
2023-07-31T21:37:04.540Z,18.56
2023-07-31T21:39:34.132Z,18.55
2023-07-31T21:42:02.253Z,18.56
2023-07-31T21:44:30.438Z,18.57
2023-07-31T21:46:58.651Z,18.56
2023-07-31T21:49:26.851Z,18.56
2023-07-31T21:51:54.941Z,18.56
2023-07-31T21:54:23.136Z,18.57
2023-07-31T21:56:52.623Z,18.57
2023-07-31T21:59:20.755Z,18.58
2023-07-31T22:01:48.985Z,18.59
2023-07-31T22:04:19.223Z,18.59
2023-07-31T22:06:48.605Z,18.57
2023-07-31T22:09:16.738Z,18.55
2023-07-31T22:11:47.499Z,18.52
2023-07-31T22:14:17.353Z,18.50
2023-07-31T22:16:45.485Z,18.51
2023-07-31T22:19:13.673Z,18.50
2023-07-31T22:21:41.782Z,18.50
2023-07-31T22:24:09.998Z,18.49
2023-07-31T22:26:38.354Z,18.49
2023-07-31T22:29:06.788Z,18.49
2023-07-31T22:31:36.248Z,18.49
2023-07-31T22:34:04.382Z,18.50
2023-07-31T22:36:32.504Z,18.51
2023-07-31T22:39:01.874Z,18.51
2023-07-31T22:41:29.979Z,18.53
2023-07-31T22:43:58.237Z,18.52
2023-07-31T22:46:26.474Z,18.52
2023-07-31T22:48:56.109Z,18.50
2023-07-31T22:51:24.751Z,18.48
2023-07-31T22:53:52.888Z,18.47
2023-07-31T22:56:21.014Z,18.47
2023-07-31T22:58:49.124Z,18.51
2023-07-31T23:01:18.613Z,18.51
2023-07-31T23:03:46.842Z,18.51
2023-07-31T23:06:16.454Z,18.51
2023-07-31T23:08:44.869Z,18.53
2023-07-31T23:11:12.993Z,18.54
2023-07-31T23:13:41.617Z,18.54
2023-07-31T23:16:09.844Z,18.54
2023-07-31T23:18:37.990Z,18.51
2023-07-31T23:21:06.145Z,18.49
2023-07-31T23:23:35.630Z,18.47
2023-07-31T23:26:03.854Z,18.45
2023-07-31T23:28:32.049Z,18.45
2023-07-31T23:31:03.639Z,18.45
2023-07-31T23:33:31.911Z,18.45
2023-07-31T23:36:00.147Z,18.41
2023-07-31T23:38:28.271Z,18.41
2023-07-31T23:40:57.789Z,18.42
2023-07-31T23:43:25.934Z,18.41
2023-07-31T23:45:54.101Z,18.40
2023-07-31T23:48:22.258Z,18.38
2023-07-31T23:50:50.360Z,18.38
2023-07-31T23:53:18.512Z,18.37
2023-07-31T23:55:46.695Z,18.35
2023-07-31T23:58:16.872Z,18.33
